Gilman, Vermont
Current Conditions -  °F | °C
As of 4:52 PM on Friday 31 Oct 2014 (Local Time) from KHIE Reporting Station
Overcast Overcast  
Wind Chill: 47°   Ceiling: 5500
Heat Index: 47°   Visibility: 10mi
Dew Point: 30°   Wind: 0mph
Humidity: 52%   Direction: NA
Pressure: 29.99"   Gusts: NA
Location:  44.41°N, 71.72°W
Report Text: KHIE 312052Z AUTO 00000KT 10SM OVC055 08/M01 A2999 RMK AO2 SLP165 T00831011 53002
Loading
Personal Weather Stations






























Interactive Weather Map
Tropical Storm Tracking
New forecast layout! Learn more

10-Day Weather Forecast

Advertisements
Track Severe Weather on mobile